Grice, Texas
Current Conditions -  °F | °C
As of 8:35 AM on Thursday 30 Oct 2014 (Local Time) from KOSA Reporting Station
Clear Clear  
Wind Chill: 46°   Ceiling: Unl
Heat Index: 46°   Visibility: 7mi
Dew Point: 46°   Wind: 0mph
Humidity: 99%   Direction: NA
Pressure: 30.19"   Gusts: NA
Location:  32.7353°N, 94.9492°W
Report Text: KOSA 301335Z AUTO 00000KT 7SM CLR 08/08 A3019 RMK AO1 T00760075
Loading
Personal Weather Stations






























Interactive Weather Map
Tropical Storm Tracking
New forecast layout! Learn more

10-Day Weather Forecast

Advertisements
Track Severe Weather on mobile